Time;durP1;ratioP1;P1;durP2;ratioP2;P2;SDS_P1;SDS_P2;PMS_P1;PMS_P2;Temp;Humidity;BMP_temperature;BMP_pressure;BME280_temperature;BME280_humidity;BME280_pressure;Samples;Min_cycle;Max_cycle;Signal;HPM_P1;HPM_P2
2022/02/02 00:00:07;;;;;;;8.95;4.32;;;10.40;99.90;;;;;;5024221;28;20038;-64
2022/02/02 00:02:49;;;;;;;9.98;4.25;;;10.40;99.90;;;;;;5011842;28;20046;-66
2022/02/02 00:05:26;;;;;;;9.25;3.90;;;10.30;99.90;;;;;;5012654;28;20498;-63
2022/02/02 00:10:35;;;;;;;7.20;4.00;;;10.30;99.90;;;;;;5010826;28;20050;-66
2022/02/02 00:13:13;;;;;;;7.32;4.60;;;10.30;99.90;;;;;;5001091;28;20056;-67
2022/02/02 00:18:38;;;;;;;8.95;3.97;;;10.20;99.90;;;;;;4995583;28;20046;-63
2022/02/02 00:21:04;;;;;;;7.05;3.70;;;10.20;99.90;;;;;;5011400;28;20513;-63
2022/02/02 00:23:40;;;;;;;5.82;4.18;;;10.20;99.90;;;;;;5012177;28;20049;-63
2022/02/02 00:26:30;;;;;;;7.15;4.53;;;10.20;99.90;;;;;;5013118;28;20046;-63
2022/02/02 00:29:03;;;;;;;8.55;3.85;;;10.20;99.90;;;;;;5011963;28;20048;-64
2022/02/02 00:31:37;;;;;;;6.10;3.97;;;10.20;99.90;;;;;;5011661;28;20061;-64
2022/02/02 00:34:08;;;;;;;6.35;4.00;;;10.20;99.90;;;;;;5010775;28;20397;-63
2022/02/02 00:39:11;;;;;;;8.52;4.47;;;10.10;99.90;;;;;;5012436;28;20060;-63
2022/02/02 00:41:38;;;;;;;7.43;4.28;;;10.20;99.90;;;;;;5011168;28;20049;-64
2022/02/02 00:44:05;;;;;;;8.00;4.43;;;10.10;99.90;;;;;;5012083;28;20044;-63
2022/02/02 00:46:32;;;;;;;7.65;4.65;;;10.10;99.90;;;;;;5010805;28;20128;-63
2022/02/02 00:49:01;;;;;;;7.53;4.45;;;10.10;99.90;;;;;;5009944;28;20433;-63
2022/02/02 00:51:37;;;;;;;9.00;4.30;;;10.10;99.90;;;;;;5010328;28;20413;-64
2022/02/02 00:54:04;;;;;;;7.90;3.72;;;10.10;99.90;;;;;;5024242;28;20155;-64
2022/02/02 00:56:31;;;;;;;7.20;3.75;;;10.10;99.90;;;;;;5015683;28;20503;-63
2022/02/02 00:58:58;;;;;;;7.05;3.40;;;10.10;99.90;;;;;;5047864;28;20058;-63
2022/02/02 01:01:26;;;;;;;6.68;3.40;;;10.10;99.90;;;;;;5050484;28;20053;-63
2022/02/02 01:03:53;;;;;;;6.00;3.22;;;10.10;99.90;;;;;;5033024;28;20049;-63
2022/02/02 01:06:21;;;;;;;4.80;3.65;;;10.00;99.90;;;;;;5038362;28;20053;-63
2022/02/02 01:19:29;;;;;;;4.72;3.50;;;10.00;99.90;;;;;;5042947;28;20064;-63
2022/02/02 01:30:02;;;;;;;8.63;4.43;;;9.90;99.90;;;;;;5031533;28;20069;-70
2022/02/02 01:32:29;;;;;;;8.00;4.60;;;10.00;99.90;;;;;;5026424;28;20041;-63
2022/02/02 01:34:56;;;;;;;9.68;4.05;;;9.90;99.90;;;;;;5040742;28;20556;-63
2022/02/02 01:37:23;;;;;;;11.05;5.35;;;9.90;99.90;;;;;;5042694;28;20045;-63
2022/02/02 01:39:57;;;;;;;7.22;3.92;;;9.90;99.90;;;;;;5041903;28;20489;-63
2022/02/02 01:42:29;;;;;;;7.70;4.38;;;9.90;99.90;;;;;;5033258;28;20399;-64
2022/02/02 01:45:05;;;;;;;10.38;4.40;;;9.90;99.90;;;;;;5036734;28;20495;-65
2022/02/02 01:47:42;;;;;;;7.32;4.20;;;9.90;99.90;;;;;;5033021;28;20041;-63
2022/02/02 01:55:41;;;;;;;11.52;4.78;;;9.80;99.90;;;;;;4941500;29;20496;-63
2022/02/02 02:00:39;;;;;;;14.10;5.82;;;9.80;99.90;;;;;;5011418;28;20052;-64
2022/02/02 02:03:06;;;;;;;8.23;4.45;;;9.80;99.90;;;;;;5010692;28;20077;-67
2022/02/02 02:05:33;;;;;;;7.97;5.50;;;9.80;99.90;;;;;;5010429;28;20079;-63
2022/02/02 02:07:59;;;;;;;10.40;5.75;;;9.80;99.90;;;;;;5000178;28;20053;-64
2022/02/02 02:10:26;;;;;;;10.50;4.82;;;9.80;99.90;;;;;;5006838;28;20048;-63
2022/02/02 02:12:59;;;;;;;10.70;6.22;;;9.80;99.90;;;;;;4998619;28;20053;-63
2022/02/02 02:15:30;;;;;;;8.07;5.07;;;9.70;99.90;;;;;;5004731;28;20050;-67
2022/02/02 02:17:58;;;;;;;8.30;4.53;;;9.80;99.90;;;;;;5010106;28;20127;-64
2022/02/02 02:20:26;;;;;;;8.48;4.93;;;9.80;99.90;;;;;;5010600;28;20410;-63
2022/02/02 02:22:53;;;;;;;8.18;5.28;;;9.70;99.90;;;;;;5010179;28;20046;-62
2022/02/02 02:25:24;;;;;;;7.65;5.13;;;9.70;99.90;;;;;;5010688;28;20400;-63
2022/02/02 02:27:53;;;;;;;8.57;4.63;;;9.70;99.90;;;;;;4994645;28;20053;-64
2022/02/02 02:30:40;;;;;;;8.88;4.50;;;9.70;99.90;;;;;;5009089;28;20072;-62
2022/02/02 02:39:20;;;;;;;7.93;5.03;;;9.70;99.90;;;;;;5002313;28;20412;-63
2022/02/02 03:00:50;;;;;;;11.38;4.07;;;9.70;99.90;;;;;;5024794;28;20047;-63
2022/02/02 03:29:42;;;;;;;9.52;4.13;;;9.70;99.90;;;;;;5032327;28;20052;-64
2022/02/02 03:49:56;;;;;;;6.10;3.78;;;9.70;99.90;;;;;;5033731;28;20485;-62
2022/02/02 03:57:34;;;;;;;6.07;3.58;;;9.80;99.90;;;;;;5020748;28;20054;-63
2022/02/02 04:02:52;;;;;;;4.63;3.17;;;9.80;99.90;;;;;;5021025;28;20057;-63
2022/02/02 04:05:34;;;;;;;5.63;3.20;;;9.80;99.90;;;;;;4991716;28;20053;-62
2022/02/02 04:10:47;;;;;;;4.95;3.47;;;9.80;99.90;;;;;;5000669;28;20485;-62
2022/02/02 04:54:53;;;;;;;9.63;4.53;;;10.00;99.90;;;;;;5030383;28;20081;-62
2022/02/02 05:08:21;;;;;;;8.18;4.80;;;10.10;99.90;;;;;;5032444;28;20050;-63
2022/02/02 05:11:08;;;;;;;7.60;4.57;;;10.10;99.90;;;;;;5019241;28;20049;-63
2022/02/02 05:49:16;;;;;;;7.85;4.85;;;10.20;99.90;;;;;;5031577;28;20064;-63
2022/02/02 05:51:30;;;;;;;6.50;4.47;;;10.20;99.90;;;;;;5035580;28;20060;-62
2022/02/02 05:53:57;;;;;;;8.55;4.45;;;10.20;99.90;;;;;;5011438;28;20124;-63
2022/02/02 05:56:24;;;;;;;7.28;4.68;;;10.20;99.90;;;;;;5012215;28;20053;-73
2022/02/02 05:58:51;;;;;;;8.48;4.63;;;10.10;99.90;;;;;;5010701;28;20038;-63
2022/02/02 06:01:18;;;;;;;6.88;3.85;;;10.20;99.90;;;;;;4997151;28;20043;-63
2022/02/02 06:03:58;;;;;;;6.40;4.07;;;10.20;99.90;;;;;;4996701;28;20478;-63
2022/02/02 06:06:26;;;;;;;6.82;3.45;;;10.20;99.90;;;;;;5011421;28;20046;-63
2022/02/02 06:08:54;;;;;;;6.93;4.43;;;10.20;99.90;;;;;;5010413;28;20125;-63
2022/02/02 06:11:23;;;;;;;10.15;5.13;;;10.20;99.90;;;;;;4994517;28;20050;-63
2022/02/02 06:13:54;;;;;;;5.75;3.78;;;10.20;99.90;;;;;;5008880;28;20465;-62
2022/02/02 06:16:22;;;;;;;6.40;4.47;;;10.20;99.90;;;;;;5010402;28;20121;-63
2022/02/02 06:18:55;;;;;;;5.18;3.80;;;10.20;99.90;;;;;;5010724;28;20056;-67
2022/02/02 06:21:27;;;;;;;9.30;4.38;;;10.20;99.90;;;;;;5000685;28;20054;-63
2022/02/02 06:24:01;;;;;;;4.72;3.58;;;10.20;99.90;;;;;;5002546;28;20049;-63
2022/02/02 06:26:28;;;;;;;5.05;3.63;;;10.20;99.90;;;;;;5011530;28;20090;-62
2022/02/02 06:28:56;;;;;;;5.70;3.60;;;10.20;99.90;;;;;;5010735;28;20049;-63
2022/02/02 06:31:25;;;;;;;5.47;4.13;;;10.20;99.90;;;;;;5011183;28;20079;-63
2022/02/02 06:34:00;;;;;;;4.93;3.67;;;10.20;99.90;;;;;;5009926;28;20056;-62
2022/02/02 06:36:29;;;;;;;6.38;3.30;;;10.20;99.90;;;;;;5010463;28;20049;-63
2022/02/02 06:38:56;;;;;;;5.03;4.40;;;10.20;99.90;;;;;;5011617;28;20164;-63
2022/02/02 06:41:24;;;;;;;6.25;4.10;;;10.30;99.90;;;;;;5009186;28;20084;-63
2022/02/02 06:43:53;;;;;;;5.95;3.53;;;10.30;99.90;;;;;;5010502;28;20396;-62
2022/02/02 06:46:25;;;;;;;4.75;3.53;;;10.30;99.90;;;;;;5009884;28;20108;-67
2022/02/02 06:48:51;;;;;;;6.30;4.00;;;10.20;99.90;;;;;;5011162;28;20494;-64
2022/02/02 06:51:26;;;;;;;7.93;5.05;;;10.20;99.90;;;;;;5011718;28;20482;-64
2022/02/02 06:54:08;;;;;;;262.63;195.13;;;10.30;99.90;;;;;;5023487;28;20073;-62
2022/02/02 06:56:50;;;;;;;25.80;21.92;;;10.20;99.90;;;;;;5034454;28;20054;-63
2022/02/02 06:59:52;;;;;;;7.32;5.97;;;10.10;99.90;;;;;;5034219;28;20439;-64
2022/02/02 07:11:03;;;;;;;8.15;3.45;;;10.00;99.90;;;;;;5011750;28;20511;-65
2022/02/02 07:29:43;;;;;;;8.80;4.10;;;10.00;99.90;;;;;;5033765;28;20048;-65
2022/02/02 07:32:21;;;;;;;6.10;3.55;;;10.00;99.90;;;;;;5034957;28;20488;-66
2022/02/02 07:35:03;;;;;;;4.25;3.45;;;9.90;99.90;;;;;;5033881;28;20052;-65
2022/02/02 07:37:36;;;;;;;6.57;3.38;;;9.90;99.90;;;;;;5034769;28;20400;-65
2022/02/02 07:40:05;;;;;;;4.43;3.42;;;9.90;99.90;;;;;;5030230;28;20064;-73
2022/02/02 07:42:33;;;;;;;5.18;3.33;;;9.90;99.90;;;;;;5014736;28;20054;-65
2022/02/02 07:45:07;;;;;;;6.07;3.63;;;9.80;99.90;;;;;;5003560;28;20446;-65
2022/02/02 07:47:39;;;;;;;5.38;3.55;;;9.70;99.90;;;;;;5007934;28;20053;-66
2022/02/02 07:50:08;;;;;;;5.30;3.55;;;9.70;99.90;;;;;;5014638;28;20409;-67
2022/02/02 07:52:35;;;;;;;5.43;3.58;;;9.60;99.90;;;;;;5023289;28;20472;-66
2022/02/02 07:55:05;;;;;;;5.72;3.67;;;9.60;99.90;;;;;;4979897;28;20413;-65
2022/02/02 07:57:33;;;;;;;5.32;3.65;;;9.50;99.90;;;;;;4996636;28;20096;-66
2022/02/02 08:00:08;;;;;;;6.57;3.95;;;9.40;99.90;;;;;;5013574;28;20047;-65
2022/02/02 08:05:05;;;;;;;6.45;4.13;;;9.30;99.90;;;;;;5020669;28;20485;-64
2022/02/02 08:07:39;;;;;;;4.85;3.50;;;9.30;99.90;;;;;;5019160;28;20045;-65
2022/02/02 08:10:17;;;;;;;5.28;3.67;;;9.30;99.90;;;;;;5033212;28;20139;-68
2022/02/02 08:15:12;;;;;;;8.98;4.38;;;9.20;99.90;;;;;;5021569;28;20060;-62
2022/02/02 08:17:40;;;;;;;96.18;75.00;;;9.20;99.90;;;;;;5016651;28;20496;-64
2022/02/02 08:20:07;;;;;;;19.08;14.93;;;9.20;99.90;;;;;;5004005;28;20045;-66
2022/02/02 08:22:34;;;;;;;10.95;7.43;;;9.20;99.90;;;;;;5032289;28;20092;-64
2022/02/02 08:25:04;;;;;;;6.55;4.80;;;9.20;99.90;;;;;;5021766;28;20404;-63
2022/02/02 08:27:38;;;;;;;5.82;4.10;;;9.20;99.90;;;;;;5021052;28;20053;-65
2022/02/02 08:30:09;;;;;;;7.35;4.05;;;9.10;99.90;;;;;;5030468;28;20568;-63
2022/02/02 08:32:50;;;;;;;6.07;4.63;;;9.10;99.90;;;;;;5030132;28;20088;-65
2022/02/02 08:35:21;;;;;;;7.28;4.22;;;9.10;99.90;;;;;;5021349;28;20072;-67
2022/02/02 08:38:07;;;;;;;5.78;4.20;;;9.10;99.90;;;;;;5029870;28;20049;-64
2022/02/02 08:40:41;;;;;;;6.40;5.13;;;9.00;99.90;;;;;;4998249;28;20097;-64
2022/02/02 08:43:14;;;;;;;7.03;4.53;;;9.00;99.90;;;;;;5026172;28;20063;-66
2022/02/02 08:45:44;;;;;;;7.68;4.78;;;9.10;99.90;;;;;;5012877;28;20441;-73
2022/02/02 08:48:15;;;;;;;5.15;4.30;;;9.10;99.90;;;;;;5013611;28;20069;-64
2022/02/02 08:50:47;;;;;;;6.60;4.88;;;9.10;99.90;;;;;;5016787;28;20088;-71
2022/02/02 08:53:32;;;;;;;7.40;5.00;;;9.10;99.90;;;;;;5016933;28;20046;-63
2022/02/02 08:56:37;;;;;;;7.25;4.68;;;9.10;99.90;;;;;;5025168;28;20042;-62
2022/02/02 08:59:20;;;;;;;20.35;16.13;;;9.10;99.90;;;;;;5012336;28;20080;-63
2022/02/02 09:01:49;;;;;;;12.73;7.88;;;9.10;99.90;;;;;;5013212;28;20065;-63
2022/02/02 09:07:02;;;;;;;6.47;4.25;;;9.30;99.90;;;;;;5025735;28;20057;-62
2022/02/02 09:10:04;;;;;;;5.60;4.15;;;9.30;99.90;;;;;;5028315;28;20116;-62
2022/02/02 09:31:34;;;;;;;8.93;4.72;;;9.50;99.90;;;;;;5023263;28;21103;-64
2022/02/02 09:34:10;;;;;;;8.07;4.65;;;9.60;99.90;;;;;;4999396;28;20048;-65
2022/02/02 09:36:41;;;;;;;6.13;4.20;;;9.60;99.90;;;;;;4995009;28;20481;-65
2022/02/02 09:39:17;;;;;;;6.85;4.20;;;9.70;99.90;;;;;;5027773;28;20096;-66
2022/02/02 09:41:47;;;;;;;12.15;5.00;;;9.70;99.90;;;;;;4988810;28;20058;-64
2022/02/02 09:44:18;;;;;;;8.57;4.45;;;9.70;99.90;;;;;;5012371;28;20137;-66
2022/02/02 09:49:32;;;;;;;7.32;4.55;;;9.80;99.90;;;;;;5032244;28;20052;-64
2022/02/02 09:52:08;;;;;;;6.47;4.25;;;9.90;99.90;;;;;;5026666;28;20081;-64
2022/02/02 09:57:34;;;;;;;5.57;4.38;;;10.00;99.90;;;;;;5031761;28;20576;-65
2022/02/02 10:05:31;;;;;;;7.28;4.05;;;10.20;99.90;;;;;;5031169;28;20070;-64
2022/02/02 10:08:55;;;;;;;5.70;4.07;;;10.20;99.90;;;;;;5032102;28;20477;-65
2022/02/02 10:14:17;;;;;;;6.25;3.80;;;10.20;99.90;;;;;;5016745;28;20050;-65
2022/02/02 10:16:45;;;;;;;6.75;3.85;;;10.20;99.90;;;;;;5015317;28;20047;-65
2022/02/02 10:19:23;;;;;;;10.82;4.43;;;10.30;99.90;;;;;;5014485;28;20496;-66
2022/02/02 10:21:50;;;;;;;5.43;3.53;;;10.30;99.90;;;;;;5014392;28;20049;-67
2022/02/02 10:24:17;;;;;;;6.20;3.80;;;10.30;99.90;;;;;;5031667;28;20055;-69
2022/02/02 10:26:51;;;;;;;5.25;3.25;;;10.40;99.90;;;;;;5034240;28;20065;-67
2022/02/02 10:29:18;;;;;;;5.78;3.60;;;10.40;99.90;;;;;;5035891;28;20399;-67
2022/02/02 10:31:47;;;;;;;5.20;3.10;;;10.40;99.90;;;;;;5018091;28;20053;-67
2022/02/02 10:34:15;;;;;;;5.32;2.58;;;10.50;99.90;;;;;;5018460;28;20103;-68
2022/02/02 10:36:42;;;;;;;5.47;2.85;;;10.50;99.90;;;;;;4985530;28;20049;-67
2022/02/02 10:39:14;;;;;;;4.45;2.65;;;10.60;99.90;;;;;;5011547;28;20059;-67
2022/02/02 10:41:46;;;;;;;3.95;3.47;;;10.70;99.90;;;;;;5039358;28;20425;-67
2022/02/02 10:44:36;;;;;;;6.00;3.10;;;10.80;99.90;;;;;;5031946;28;20050;-68
2022/02/02 10:47:30;;;;;;;34.72;29.92;;;11.00;99.90;;;;;;5015596;28;20543;-68
2022/02/02 10:50:05;;;;;;;12.93;9.90;;;11.10;99.90;;;;;;5032417;28;20497;-68
2022/02/02 10:52:48;;;;;;;4.63;2.55;;;11.30;99.90;;;;;;5044958;28;20045;-68
2022/02/02 11:07:04;;;;;;;5.63;1.98;;;11.60;99.90;;;;;;5014515;28;20073;-69
2022/02/02 11:09:24;;;;;;;3.92;2.40;;;11.70;99.90;;;;;;5013403;28;20489;-69
2022/02/02 11:11:53;;;;;;;4.65;3.35;;;11.70;99.90;;;;;;5001591;28;20057;-68
2022/02/02 11:14:55;;;;;;;3.25;2.20;;;11.90;99.90;;;;;;4995442;28;20047;-68
2022/02/02 11:17:43;;;;;;;4.50;2.00;;;12.00;99.90;;;;;;4995672;28;20145;-69
2022/02/02 11:20:12;;;;;;;3.65;1.98;;;12.20;99.90;;;;;;4995607;28;20137;-69
2022/02/02 11:22:55;;;;;;;3.30;1.40;;;12.30;99.90;;;;;;5005072;28;20053;-69
2022/02/02 11:25:22;;;;;;;3.33;1.52;;;12.30;99.90;;;;;;4997695;28;20062;-70
2022/02/02 11:27:56;;;;;;;5.30;2.20;;;12.20;99.90;;;;;;5014884;28;20441;-69
2022/02/02 11:30:23;;;;;;;3.47;1.80;;;12.20;98.90;;;;;;4999678;28;20049;-69
2022/02/02 11:32:52;;;;;;;4.80;2.70;;;12.10;99.90;;;;;;5033696;28;20155;-70
2022/02/02 11:35:30;;;;;;;5.85;2.58;;;12.00;99.50;;;;;;5034135;28;20053;-69
2022/02/02 11:38:31;;;;;;;3.83;2.20;;;12.10;99.90;;;;;;5027640;28;20042;-69
2022/02/02 11:41:09;;;;;;;3.45;1.98;;;12.10;99.40;;;;;;5014910;28;20141;-68
2022/02/02 11:49:21;;;;;;;5.72;2.10;;;12.00;98.10;;;;;;5011096;28;20489;-68
2022/02/02 11:51:50;;;;;;;217.65;172.90;;;11.90;99.20;;;;;;5009916;28;20158;-70
2022/02/02 11:54:32;;;;;;;15.32;13.60;;;11.80;99.90;;;;;;5004477;28;20073;-68
2022/02/02 11:57:04;;;;;;;9.63;5.60;;;11.80;99.90;;;;;;4995551;28;20046;-67
2022/02/02 12:00:04;;;;;;;6.28;3.88;;;11.80;99.90;;;;;;4995247;28;20047;-66
2022/02/02 12:02:52;;;;;;;3.90;2.42;;;11.80;99.90;;;;;;5001331;28;20493;-77
2022/02/02 12:05:46;;;;;;;2.70;1.90;;;11.90;99.90;;;;;;5007184;28;20043;-67
2022/02/02 12:11:28;;;;;;;3.60;2.00;;;12.10;99.90;;;;;;5011998;28;20410;-65
2022/02/02 12:58:28;;;;;;;4.90;1.92;;;12.20;97.30;;;;;;5013138;28;20054;-65
2022/02/02 13:01:09;;;;;;;2.65;1.73;;;12.20;98.20;;;;;;5013063;28;20046;-64
2022/02/02 13:03:40;;;;;;;5.57;1.98;;;12.30;97.30;;;;;;5011857;28;20133;-64
2022/02/02 13:06:18;;;;;;;6.65;1.90;;;12.30;98.50;;;;;;5011881;28;20054;-64
2022/02/02 13:08:46;;;;;;;2.47;1.70;;;12.40;97.50;;;;;;5012058;28;20093;-64
2022/02/02 13:11:13;;;;;;;3.72;1.50;;;12.50;96.80;;;;;;4995872;28;20054;-64
2022/02/02 13:13:45;;;;;;;5.68;1.70;;;12.50;97.60;;;;;;5011754;28;20379;-66
2022/02/02 13:16:21;;;;;;;3.63;1.60;;;12.60;96.20;;;;;;4988681;28;20073;-64
2022/02/02 13:18:52;;;;;;;5.28;1.60;;;12.60;96.90;;;;;;4984133;28;20045;-64
2022/02/02 13:21:28;;;;;;;4.22;1.60;;;12.60;95.50;;;;;;5007581;28;20052;-64
2022/02/02 13:37:48;;;;;;;6.63;2.40;;;12.80;95.90;;;;;;5008391;28;20125;-64
2022/02/02 14:31:16;;;;;;;18.23;14.10;;;12.50;94.60;;;;;;5015373;28;20140;-65
2022/02/02 14:33:52;;;;;;;7.88;5.60;;;12.50;95.10;;;;;;5019996;28;20050;-64
2022/02/02 14:36:24;;;;;;;6.75;3.03;;;12.50;95.50;;;;;;4996001;28;20085;-68
2022/02/02 14:38:57;;;;;;;4.50;2.47;;;12.40;96.50;;;;;;5014902;28;20489;-66
2022/02/02 14:41:36;;;;;;;5.32;2.47;;;12.40;95.80;;;;;;5017125;28;20054;-66
2022/02/02 14:49:14;;;;;;;2.22;1.80;;;12.40;96.80;;;;;;5007856;28;20073;-65
2022/02/02 14:51:55;;;;;;;3.83;2.28;;;12.40;96.10;;;;;;5017401;28;20095;-64
2022/02/02 15:06:31;;;;;;;4.82;3.00;;;12.60;95.90;;;;;;4996397;28;20401;-67
2022/02/02 15:28:40;;;;;;;3.85;2.10;;;12.50;97.50;;;;;;5009505;28;20497;-67
2022/02/02 15:31:07;;;;;;;10.73;2.50;;;12.50;97.50;;;;;;5027509;28;20046;-67
2022/02/02 15:33:34;;;;;;;4.55;2.13;;;12.40;97.40;;;;;;5001111;28;20540;-67
2022/02/02 15:38:37;;;;;;;21.15;15.82;;;12.40;97.90;;;;;;5009724;28;20125;-66
2022/02/02 15:41:09;;;;;;;9.77;5.05;;;12.40;97.40;;;;;;4997176;28;20417;-68
2022/02/02 16:05:34;;;;;;;4.25;2.80;;;12.20;98.00;;;;;;5030347;28;20046;-69
2022/02/02 16:08:06;;;;;;;3.80;2.22;;;12.20;98.40;;;;;;5034517;28;20056;-70
2022/02/02 16:37:38;;;;;;;4.18;2.13;;;11.70;99.90;;;;;;5025065;28;19932;-69
2022/02/02 16:40:08;;;;;;;4.32;2.60;;;11.60;99.90;;;;;;5032129;28;20132;-67
2022/02/02 16:45:22;;;;;;;7.65;2.28;;;11.40;99.90;;;;;;5031949;28;20061;-67
2022/02/02 16:47:49;;;;;;;2.80;2.22;;;11.40;99.90;;;;;;5033426;28;20051;-67
2022/02/02 16:50:21;;;;;;;6.00;3.33;;;11.30;99.90;;;;;;5032584;28;20042;-66
2022/02/02 16:52:51;;;;;;;4.00;2.63;;;11.30;99.90;;;;;;5013826;28;20132;-70
2022/02/02 16:55:33;;;;;;;9.02;2.85;;;11.30;99.90;;;;;;5010351;28;20085;-68
2022/02/02 16:58:16;;;;;;;5.43;3.03;;;11.20;99.90;;;;;;4996142;28;20061;-71
2022/02/02 17:31:51;;;;;;;6.90;3.00;;;10.60;99.90;;;;;;5007087;28;20078;-73
2022/02/02 17:34:28;;;;;;;5.05;3.00;;;10.50;99.90;;;;;;5007915;28;20066;-71
2022/02/02 17:39:41;;;;;;;6.10;3.63;;;10.40;99.90;;;;;;5010030;28;20564;-71
2022/02/02 18:20:05;;;;;;;10.32;6.80;;;9.50;99.90;;;;;;5022470;28;20408;-72
2022/02/02 18:22:40;;;;;;;10.25;5.50;;;9.50;99.90;;;;;;5009248;28;20049;-72
2022/02/02 18:27:53;;;;;;;8.80;5.13;;;9.50;99.90;;;;;;5031286;28;20057;-72
2022/02/02 18:30:34;;;;;;;12.40;6.25;;;9.50;99.90;;;;;;5030112;28;20049;-72
2022/02/02 18:33:17;;;;;;;7.43;5.32;;;9.50;99.90;;;;;;5030051;28;20133;-72
2022/02/02 18:35:53;;;;;;;6.35;4.88;;;9.40;99.90;;;;;;5015503;28;20048;-72
2022/02/02 18:46:33;;;;;;;7.30;4.70;;;9.40;99.90;;;;;;5020746;28;20323;-73
2022/02/02 19:55:46;;;;;;;8.18;6.60;;;9.90;99.90;;;;;;5051578;28;20049;-73
2022/02/02 20:11:36;;;;;;;14.25;9.38;;;10.20;99.90;;;;;;5012663;28;20317;-72
2022/02/02 20:14:04;;;;;;;12.00;7.47;;;10.20;99.90;;;;;;5034142;28;20052;-73
2022/02/02 20:16:31;;;;;;;8.90;5.97;;;10.20;99.90;;;;;;5000433;28;20108;-72
2022/02/02 20:19:00;;;;;;;15.18;7.13;;;10.20;99.90;;;;;;5033782;28;20132;-73
2022/02/02 20:21:32;;;;;;;15.63;6.28;;;10.20;99.90;;;;;;5033620;28;20081;-73
2022/02/02 20:24:02;;;;;;;9.45;7.00;;;10.20;99.90;;;;;;5028278;28;20046;-73
2022/02/02 20:26:30;;;;;;;14.02;6.72;;;10.20;99.90;;;;;;5021988;28;20049;-73
2022/02/02 20:28:59;;;;;;;16.35;6.97;;;10.20;99.90;;;;;;5027433;28;20081;-72
2022/02/02 20:31:26;;;;;;;10.45;6.40;;;10.20;99.90;;;;;;5018802;28;20056;-73
2022/02/02 20:33:53;;;;;;;10.38;6.65;;;10.20;99.90;;;;;;5032762;28;20051;-73
2022/02/02 20:36:20;;;;;;;11.63;7.63;;;10.20;99.90;;;;;;5018473;28;20049;-73
2022/02/02 20:38:47;;;;;;;12.60;6.95;;;10.20;99.90;;;;;;5023161;28;20402;-73
2022/02/02 20:41:14;;;;;;;9.75;6.97;;;10.20;99.90;;;;;;5025065;28;20057;-73
2022/02/02 20:43:58;;;;;;;11.15;6.63;;;10.30;99.90;;;;;;5032623;28;20041;-73
2022/02/02 21:05:32;;;;;;;;;;;10.40;99.90;;;;;;5032292;28;20053;-78
2022/02/02 21:10:33;;;;;;;15.63;10.40;;;10.40;99.90;;;;;;5000921;28;20136;-72
2022/02/02 21:15:47;;;;;;;15.82;8.98;;;10.40;99.90;;;;;;5030828;28;20053;-73
2022/02/02 21:18:18;;;;;;;12.07;6.55;;;10.30;99.90;;;;;;5015449;28;20076;-73
2022/02/02 21:28:34;;;;;;;12.88;7.38;;;10.30;99.90;;;;;;5032618;28;20068;-73
2022/02/02 21:31:01;;;;;;;11.18;6.40;;;10.30;99.90;;;;;;4999617;28;20144;-73
2022/02/02 21:33:28;;;;;;;11.50;7.15;;;10.30;99.90;;;;;;5024107;28;20049;-73
2022/02/02 21:35:57;;;;;;;8.55;5.75;;;10.30;99.90;;;;;;5021355;28;20055;-73
2022/02/02 21:40:57;;;;;;;10.07;5.60;;;10.30;99.90;;;;;;5022236;28;20294;-73
2022/02/02 21:43:24;;;;;;;11.43;6.00;;;10.30;99.90;;;;;;5010269;28;20050;-73
2022/02/02 21:45:55;;;;;;;8.52;5.22;;;10.30;99.90;;;;;;5015898;28;20103;-73
2022/02/02 21:48:27;;;;;;;10.43;4.60;;;10.30;99.90;;;;;;5026806;28;20067;-73
2022/02/02 21:51:08;;;;;;;9.90;4.70;;;10.30;99.90;;;;;;5028938;28;20049;-73
2022/02/02 21:53:35;;;;;;;10.25;4.28;;;10.30;99.90;;;;;;5017634;28;20061;-72
2022/02/02 21:56:02;;;;;;;13.98;5.75;;;10.30;99.90;;;;;;5027614;28;20053;-73
2022/02/02 21:58:29;;;;;;;12.05;4.95;;;10.30;99.90;;;;;;5016463;28;20052;-73
2022/02/02 22:00:56;;;;;;;11.50;4.45;;;10.30;99.90;;;;;;5028519;28;20061;-75
2022/02/02 22:03:23;;;;;;;12.05;4.38;;;10.30;99.90;;;;;;5018273;28;20049;-67
2022/02/02 22:05:50;;;;;;;7.13;3.55;;;10.30;99.90;;;;;;5037415;28;20412;-71
2022/02/02 22:08:17;;;;;;;6.63;3.13;;;10.20;99.90;;;;;;5016519;28;20052;-71
2022/02/02 22:10:44;;;;;;;9.98;4.55;;;10.20;99.90;;;;;;5040162;28;20156;-71
2022/02/02 22:13:11;;;;;;;10.05;3.08;;;10.20;99.90;;;;;;5036542;28;20083;-71
2022/02/02 22:15:42;;;;;;;11.02;3.80;;;10.20;99.90;;;;;;5010320;28;20085;-71
2022/02/02 22:18:10;;;;;;;10.48;3.20;;;10.20;99.90;;;;;;5032444;28;20480;-71
2022/02/02 22:20:37;;;;;;;7.82;3.25;;;10.20;99.90;;;;;;5041456;28;20045;-71
2022/02/02 22:23:04;;;;;;;12.13;3.22;;;10.20;99.90;;;;;;5025278;28;20538;-72
2022/02/02 22:25:31;;;;;;;4.95;2.10;;;10.20;99.50;;;;;;5022848;28;20046;-71
2022/02/02 22:27:58;;;;;;;4.72;3.00;;;10.20;99.90;;;;;;5025243;28;20170;-72
2022/02/02 22:30:25;;;;;;;10.48;3.58;;;10.20;99.30;;;;;;5029114;28;20559;-71
2022/02/02 22:32:52;;;;;;;10.43;3.85;;;10.10;99.30;;;;;;5035930;28;20057;-71
2022/02/02 22:35:19;;;;;;;7.97;3.08;;;10.10;99.20;;;;;;5017946;28;20136;-71
2022/02/02 22:37:46;;;;;;;7.20;2.63;;;10.10;99.10;;;;;;5035534;28;20108;-72
2022/02/02 22:40:20;;;;;;;9.57;2.65;;;10.10;98.30;;;;;;5040234;28;20084;-71
2022/02/02 22:42:47;;;;;;;11.75;3.03;;;10.10;97.30;;;;;;5048132;28;20043;-71
2022/02/02 22:45:14;;;;;;;8.55;3.92;;;10.10;97.70;;;;;;5035351;28;20132;-71
2022/02/02 22:47:44;;;;;;;9.27;3.33;;;10.00;97.70;;;;;;5021388;28;20060;-71
2022/02/02 22:50:12;;;;;;;5.85;2.38;;;10.00;97.50;;;;;;5025618;28;20076;-71
2022/02/02 22:52:42;;;;;;;11.13;4.40;;;10.00;97.00;;;;;;5007748;28;20052;-71
2022/02/02 22:55:12;;;;;;;10.65;4.55;;;10.00;97.90;;;;;;4998459;28;20061;-71
2022/02/02 22:57:39;;;;;;;8.05;3.05;;;9.90;97.50;;;;;;5014204;28;20050;-71
2022/02/02 23:00:10;;;;;;;10.57;3.55;;;10.00;98.20;;;;;;5026429;28;20041;-72
2022/02/02 23:02:58;;;;;;;12.25;3.00;;;10.00;97.80;;;;;;5011438;28;20049;-71
2022/02/02 23:05:34;;;;;;;12.32;4.13;;;9.90;97.60;;;;;;5020559;28;20449;-72
2022/02/02 23:08:02;;;;;;;13.32;3.47;;;9.90;97.40;;;;;;5018508;28;20056;-71
2022/02/02 23:10:30;;;;;;;10.93;3.15;;;9.90;97.60;;;;;;5022079;28;20085;-71
2022/02/02 23:12:57;;;;;;;5.40;2.63;;;9.90;97.80;;;;;;5024841;28;20047;-72
2022/02/02 23:15:35;;;;;;;7.68;2.80;;;9.90;97.90;;;;;;5044554;28;20132;-71
2022/02/02 23:20:37;;;;;;;10.60;2.95;;;9.90;97.50;;;;;;5037418;28;20132;-71
2022/02/02 23:23:04;;;;;;;14.13;2.83;;;9.90;97.50;;;;;;5035019;28;20801;-71
2022/02/02 23:25:33;;;;;;;7.03;2.97;;;9.90;98.00;;;;;;5035429;28;20045;-71
2022/02/02 23:28:02;;;;;;;9.02;2.80;;;10.00;97.70;;;;;;5001562;28;20067;-72
2022/02/02 23:30:29;;;;;;;13.10;4.07;;;9.90;97.80;;;;;;5032932;28;20136;-72
2022/02/02 23:33:01;;;;;;;8.20;2.92;;;9.90;97.70;;;;;;5035284;28;20133;-71
2022/02/02 23:35:29;;;;;;;6.63;1.98;;;9.90;98.70;;;;;;5036136;28;20576;-71
2022/02/02 23:37:56;;;;;;;9.93;3.10;;;9.90;98.30;;;;;;5015894;28;20136;-71
2022/02/02 23:40:23;;;;;;;8.35;2.70;;;10.00;97.90;;;;;;5004744;28;20050;-71
2022/02/02 23:42:50;;;;;;;9.95;2.55;;;10.00;98.40;;;;;;5021070;28;20049;-72
2022/02/02 23:45:22;;;;;;;10.80;3.42;;;10.00;97.70;;;;;;5035362;28;20041;-71
2022/02/02 23:47:49;;;;;;;11.20;3.15;;;9.90;97.70;;;;;;5017794;28;20052;-71
2022/02/02 23:50:17;;;;;;;11.02;3.10;;;10.00;98.10;;;;;;5032897;28;20076;-71
2022/02/02 23:52:51;;;;;;;7.85;2.42;;;10.00;98.30;;;;;;4988003;28;20481;-72
2022/02/02 23:55:41;;;;;;;7.68;2.63;;;10.00;98.10;;;;;;5011615;28;20054;-71
2022/02/02 23:58:14;;;;;;;6.65;2.83;;;10.00;97.40;;;;;;5018306;28;20053;-72
